Time;durP1;ratioP1;P1;durP2;ratioP2;P2;SDS_P1;SDS_P2;PMS_P1;PMS_P2;Temp;Humidity;BMP_temperature;BMP_pressure;BME280_temperature;BME280_humidity;BME280_pressure;Samples;Min_cycle;Max_cycle;Signal;HPM_P1;HPM_P2
2022/04/04 00:00:53;;;;;;;5.27;4.80;;;;;;;-4.96;100.00;97319.22;5028577;28;20620;-55
2022/04/04 00:03:22;;;;;;;5.07;4.67;;;;;;;-4.88;100.00;97318.81;4990135;28;21330;-56
2022/04/04 00:05:52;;;;;;;5.20;4.80;;;;;;;-4.90;100.00;97324.97;5026467;28;20462;-57
2022/04/04 00:08:21;;;;;;;4.80;4.37;;;;;;;-4.87;100.00;97319.63;4992722;28;20555;-57
2022/04/04 00:10:49;;;;;;;4.73;4.43;;;;;;;-4.99;100.00;97316.81;5023734;28;20488;-58
2022/04/04 00:13:18;;;;;;;4.87;4.57;;;;;;;-5.03;100.00;97315.31;5001253;28;20499;-57
2022/04/04 00:15:47;;;;;;;4.40;4.20;;;;;;;-4.97;100.00;97311.53;5011223;28;20461;-56
2022/04/04 00:18:15;;;;;;;4.90;4.60;;;;;;;-4.89;100.00;97311.13;4996207;28;20470;-58
2022/04/04 00:20:44;;;;;;;4.80;4.30;;;;;;;-4.82;100.00;97313.28;5016928;28;20494;-57
2022/04/04 00:23:14;;;;;;;4.97;4.57;;;;;;;-4.84;100.00;97317.72;5006260;28;20457;-55
2022/04/04 00:25:45;;;;;;;4.30;4.00;;;;;;;-4.88;100.00;97312.78;5014024;28;21077;-55
2022/04/04 00:28:14;;;;;;;4.80;4.43;;;;;;;-5.00;100.00;97314.28;5002660;28;20450;-56
2022/04/04 00:30:42;;;;;;;4.50;4.20;;;;;;;-4.99;100.00;97311.63;5005197;28;20562;-54
2022/04/04 00:33:11;;;;;;;4.50;4.20;;;;;;;-5.05;100.00;97309.38;5017955;28;20577;-56
2022/04/04 00:35:39;;;;;;;5.00;4.70;;;;;;;-5.05;100.00;97317.13;4998127;28;20486;-54
2022/04/04 00:38:10;;;;;;;4.57;4.27;;;;;;;-5.18;100.00;97300.63;5021669;28;20460;-57
2022/04/04 00:40:41;;;;;;;4.30;4.00;;;;;;;-5.21;100.00;97321.44;4987889;28;20482;-57
2022/04/04 00:43:10;;;;;;;5.93;4.40;;;;;;;-5.35;100.00;97323.03;5019071;28;20540;-58
2022/04/04 00:45:38;;;;;;;4.73;4.43;;;;;;;-5.23;100.00;97312.03;4993723;28;20450;-55
2022/04/04 00:48:07;;;;;;;4.90;4.60;;;;;;;-5.26;100.00;97314.78;5023138;28;20468;-59
2022/04/04 00:50:36;;;;;;;4.53;4.23;;;;;;;-5.29;100.00;97314.13;4992925;28;20811;-54
2022/04/04 00:53:04;;;;;;;4.90;4.50;;;;;;;-5.42;100.00;97322.50;5024017;28;20493;-56
2022/04/04 00:55:32;;;;;;;4.40;4.10;;;;;;;-5.46;100.00;97328.75;4986264;28;20557;-55
2022/04/04 00:58:02;;;;;;;6.80;5.10;;;;;;;-5.37;100.00;97319.69;5022207;28;20541;-57
2022/04/04 01:00:31;;;;;;;4.67;4.37;;;;;;;-5.37;100.00;97317.09;4997079;28;20573;-57
2022/04/04 01:03:00;;;;;;;4.47;4.17;;;;;;;-5.29;100.00;97320.13;5028398;28;20545;-57
2022/04/04 01:05:30;;;;;;;5.17;4.77;;;;;;;-5.32;100.00;97312.53;4992159;28;21151;-53
2022/04/04 01:07:58;;;;;;;5.57;5.07;;;;;;;-5.28;100.00;97308.88;5022013;28;20542;-58
2022/04/04 01:10:28;;;;;;;5.00;4.57;;;;;;;-5.35;100.00;97302.38;4986752;28;22079;-58
2022/04/04 01:12:57;;;;;;;4.77;3.93;;;;;;;-5.45;100.00;97298.59;5018282;28;20984;-57
2022/04/04 01:15:32;;;;;;;5.53;4.50;;;;;;;-5.42;100.00;97303.63;4994298;28;20488;-55
2022/04/04 01:18:01;;;;;;;4.60;4.30;;;;;;;-5.34;100.00;97305.75;5026245;28;20488;-56
2022/04/04 01:20:29;;;;;;;4.30;4.00;;;;;;;-5.39;100.00;97303.44;5005817;28;20659;-55
2022/04/04 01:22:57;;;;;;;5.17;4.87;;;;;;;-5.37;100.00;97294.69;5012666;28;20468;-57
2022/04/04 01:25:29;;;;;;;4.87;4.53;;;;;;;-5.42;100.00;97293.28;4986642;28;21089;-56
2022/04/04 01:27:59;;;;;;;5.40;4.57;;;;;;;-5.47;100.00;97296.09;5018631;28;21175;-57
2022/04/04 01:30:27;;;;;;;5.90;5.00;;;;;;;-5.45;100.00;97298.59;4998578;28;20451;-53
2022/04/04 01:32:56;;;;;;;4.63;4.27;;;;;;;-5.49;100.00;97289.34;5023536;28;20454;-55
2022/04/04 01:35:24;;;;;;;4.87;4.47;;;;;;;-5.48;100.00;97284.09;5006221;28;20565;-56
2022/04/04 01:37:52;;;;;;;4.73;4.43;;;;;;;-5.56;100.00;97284.50;5010560;28;20465;-52
2022/04/04 01:40:20;;;;;;;4.40;4.10;;;;;;;-5.50;100.00;97285.94;5024962;28;20464;-56
2022/04/04 01:42:52;;;;;;;5.63;5.17;;;;;;;-5.45;100.00;97280.53;4986298;28;20500;-51
2022/04/04 01:46:23;;;;;;;4.93;4.53;;;;;;;-5.67;100.00;97279.91;5016291;28;20464;-56
2022/04/04 01:48:10;;;;;;;5.10;4.70;;;;;;;-5.85;100.00;97271.38;4999529;28;20565;-54
2022/04/04 01:50:39;;;;;;;5.00;4.63;;;;;;;-5.86;100.00;97268.88;5013414;28;20484;-53
2022/04/04 01:55:53;;;;;;;5.80;5.33;;;;;;;-5.98;100.00;97270.34;5031223;28;21180;-55
2022/04/04 01:58:23;;;;;;;5.30;4.80;;;;;;;-6.10;100.00;97264.06;4989674;28;20474;-55
2022/04/04 02:00:52;;;;;;;5.00;4.60;;;;;;;-6.20;100.00;97265.47;5029508;28;20485;-57
2022/04/04 02:03:20;;;;;;;5.27;4.93;;;;;;;-6.23;100.00;97263.88;4999440;28;21277;-57
2022/04/04 02:05:49;;;;;;;4.50;4.20;;;;;;;-6.21;100.00;97267.22;5031494;28;20453;-55
2022/04/04 02:08:17;;;;;;;5.00;4.50;;;;;;;-6.25;100.00;97257.94;5006259;28;20493;-55
2022/04/04 02:10:46;;;;;;;4.40;4.10;;;;;;;-6.27;100.00;97259.75;5014167;28;20595;-54
2022/04/04 02:13:14;;;;;;;5.00;4.70;;;;;;;-6.35;100.00;97260.19;4992375;28;20565;-52
2022/04/04 02:15:44;;;;;;;5.10;4.70;;;;;;;-6.38;100.00;97256.91;5018887;28;20482;-56
2022/04/04 02:18:12;;;;;;;5.00;4.60;;;;;;;-6.44;100.00;97247.72;5002656;28;20504;-57
2022/04/04 02:20:41;;;;;;;5.17;4.77;;;;;;;-6.43;100.00;97257.97;5030190;28;20601;-56
2022/04/04 02:23:09;;;;;;;6.20;4.90;;;;;;;-6.32;100.00;97256.59;5010167;28;20544;-53
2022/04/04 02:25:38;;;;;;;5.20;4.80;;;;;;;-6.34;100.00;97255.84;5012623;28;21232;-56
2022/04/04 02:28:07;;;;;;;5.43;4.97;;;;;;;-6.32;100.00;97246.28;5021184;28;20549;-56
2022/04/04 02:30:36;;;;;;;7.73;5.23;;;;;;;-6.31;100.00;97251.38;5007194;28;20478;-59
2022/04/04 02:33:05;;;;;;;5.17;4.73;;;;;;;-6.26;100.00;97240.81;5007386;28;20464;-56
2022/04/04 02:35:34;;;;;;;5.80;5.30;;;;;;;-6.21;100.00;97243.16;5024018;28;20488;-56
2022/04/04 02:38:03;;;;;;;5.43;5.03;;;;;;;-6.17;100.00;97235.19;5011318;28;20454;-53
2022/04/04 02:40:32;;;;;;;5.30;4.80;;;;;;;-6.21;100.00;97241.44;5011567;28;20586;-53
2022/04/04 02:43:00;;;;;;;4.97;4.57;;;;;;;-6.23;100.00;97229.50;5008155;28;20469;-53
2022/04/04 02:45:29;;;;;;;4.97;4.53;;;;;;;-6.33;100.00;97214.50;4996478;28;20529;-57
2022/04/04 02:47:58;;;;;;;5.00;4.70;;;;;;;-6.24;100.00;97228.69;5003738;28;20468;-59
2022/04/04 02:50:27;;;;;;;5.60;5.20;;;;;;;-6.17;100.00;97224.88;5026684;28;20600;-58
2022/04/04 02:52:56;;;;;;;5.97;5.30;;;;;;;-6.21;100.00;97225.94;5008273;28;20552;-57
2022/04/04 02:58:10;;;;;;;5.33;4.63;;;;;;;-6.12;100.00;97225.47;5011291;28;20472;-58
2022/04/04 03:00:39;;;;;;;5.00;4.60;;;;;;;-6.14;100.00;97229.88;4995485;28;20502;-57
2022/04/04 03:03:07;;;;;;;5.03;4.63;;;;;;;-6.08;100.00;97225.31;5002922;28;20545;-57
2022/04/04 03:05:37;;;;;;;5.47;5.07;;;;;;;-6.07;100.00;97217.47;5028629;28;21103;-55
2022/04/04 03:08:06;;;;;;;5.50;5.10;;;;;;;-6.04;100.00;97219.94;5027101;28;20873;-57
2022/04/04 03:10:35;;;;;;;4.67;4.37;;;;;;;-5.98;100.00;97222.16;5007325;28;20482;-55
2022/04/04 03:13:05;;;;;;;6.20;5.70;;;;;;;-6.01;100.00;97224.06;4987608;28;21209;-57
2022/04/04 03:15:35;;;;;;;5.83;5.33;;;;;;;-6.06;100.00;97215.75;4997526;28;20597;-56
2022/04/04 03:18:05;;;;;;;5.87;5.37;;;;;;;-5.98;100.00;97214.41;5003843;28;20540;-57
2022/04/04 03:20:33;;;;;;;5.43;4.93;;;;;;;-5.97;100.00;97217.81;5027361;28;20576;-52
2022/04/04 03:23:03;;;;;;;5.00;4.60;;;;;;;-6.04;100.00;97206.19;5025623;28;20454;-57
2022/04/04 03:25:31;;;;;;;7.00;6.40;;;;;;;-5.94;100.00;97220.22;5003861;28;20460;-56
2022/04/04 03:28:00;;;;;;;5.40;5.10;;;;;;;-5.90;100.00;97218.34;5007140;28;20261;-56
2022/04/04 03:30:29;;;;;;;4.80;4.40;;;;;;;-6.02;100.00;97218.09;5024423;28;21271;-57
2022/04/04 03:32:59;;;;;;;5.17;4.77;;;;;;;-5.98;100.00;97211.84;4991504;28;20577;-56
2022/04/04 03:35:29;;;;;;;5.60;5.17;;;;;;;-5.95;100.00;97213.41;5000778;28;20486;-56
2022/04/04 03:38:00;;;;;;;6.23;5.73;;;;;;;-6.00;100.00;97215.41;5023909;28;20550;-58
2022/04/04 03:40:30;;;;;;;5.27;4.87;;;;;;;-6.02;100.00;97212.09;5007715;28;20477;-57
2022/04/04 03:43:00;;;;;;;6.00;5.50;;;;;;;-6.08;100.00;97213.22;5004273;28;20583;-57
2022/04/04 03:45:28;;;;;;;5.63;5.13;;;;;;;-5.99;100.00;97205.00;5027070;28;20508;-59
2022/04/04 03:47:57;;;;;;;4.70;4.40;;;;;;;-6.05;100.00;97207.94;4994308;28;20473;-55
2022/04/04 03:50:27;;;;;;;5.17;4.77;;;;;;;-6.01;100.00;97212.03;5002974;28;20540;-54
2022/04/04 03:52:56;;;;;;;5.00;4.60;;;;;;;-6.03;100.00;97210.44;5023406;28;20454;-58
2022/04/04 03:55:26;;;;;;;5.07;4.70;;;;;;;-6.04;100.00;97207.03;5018408;28;21207;-56
2022/04/04 03:57:56;;;;;;;5.00;4.60;;;;;;;-6.05;100.00;97213.09;5012128;28;20505;-55
2022/04/04 04:00:25;;;;;;;5.13;4.83;;;;;;;-6.00;100.00;97211.09;5028185;28;21397;-55
2022/04/04 04:02:54;;;;;;;5.10;4.70;;;;;;;-6.01;100.00;97204.28;4995129;28;20588;-57
2022/04/04 04:05:22;;;;;;;5.50;5.10;;;;;;;-6.05;100.00;97207.09;5005923;28;20553;-59
2022/04/04 04:07:51;;;;;;;5.13;4.73;;;;;;;-6.11;100.00;97208.22;5026585;28;20555;-56
2022/04/04 04:10:20;;;;;;;5.50;5.00;;;;;;;-6.14;100.00;97205.81;5028646;28;20854;-58
2022/04/04 04:12:48;;;;;;;5.27;4.97;;;;;;;-6.16;100.00;97202.47;5004617;28;20552;-59
2022/04/04 04:15:20;;;;;;;5.87;5.47;;;;;;;-6.19;100.00;97200.91;5028998;28;20569;-56
2022/04/04 04:17:49;;;;;;;5.00;4.60;;;;;;;-6.15;100.00;97199.84;5024194;28;20669;-57
2022/04/04 04:20:22;;;;;;;5.73;5.23;;;;;;;-6.06;100.00;97198.53;4963916;28;20491;-56
2022/04/04 04:22:54;;;;;;;4.93;4.57;;;;;;;-5.95;100.00;97203.09;5025071;28;20446;-56
2022/04/04 04:25:24;;;;;;;5.60;5.00;;;;;;;-6.00;100.00;97199.91;5026330;28;20537;-58
2022/04/04 04:27:52;;;;;;;5.60;5.20;;;;;;;-6.05;100.00;97201.94;5026199;28;20690;-53
2022/04/04 04:30:22;;;;;;;6.10;5.60;;;;;;;-6.07;100.00;97212.31;5007810;28;20511;-56
2022/04/04 04:32:51;;;;;;;6.47;5.63;;;;;;;-6.13;100.00;97195.44;5024757;28;20545;-56
2022/04/04 04:35:21;;;;;;;8.87;5.47;;;;;;;-6.09;100.00;97198.66;4993051;28;20470;-56
2022/04/04 04:37:51;;;;;;;6.27;5.77;;;;;;;-6.12;100.00;97185.94;4999562;28;20484;-55
2022/04/04 04:40:20;;;;;;;6.50;6.00;;;;;;;-6.08;100.00;97196.94;5030557;28;21282;-55
2022/04/04 04:42:51;;;;;;;6.53;4.93;;;;;;;-6.04;100.00;97199.28;5024803;28;20537;-55
2022/04/04 04:45:19;;;;;;;6.60;5.23;;;;;;;-6.10;100.00;97194.41;5012540;28;20658;-57
2022/04/04 04:47:50;;;;;;;5.40;5.10;;;;;;;-6.06;100.00;97200.28;5025596;28;20446;-56
2022/04/04 04:50:20;;;;;;;5.23;4.83;;;;;;;-6.06;100.00;97193.38;4996286;28;20575;-57
2022/04/04 04:52:48;;;;;;;5.77;5.27;;;;;;;-5.95;100.00;97200.50;5000569;28;20573;-58
2022/04/04 04:55:19;;;;;;;6.07;5.47;;;;;;;-5.90;100.00;97200.28;5023426;28;20547;-53
2022/04/04 04:57:47;;;;;;;5.23;4.83;;;;;;;-5.90;100.00;97201.09;5023191;28;20485;-54
2022/04/04 05:00:18;;;;;;;5.93;5.43;;;;;;;-5.79;100.00;97191.97;5010907;28;20558;-53
2022/04/04 05:02:47;;;;;;;5.43;5.03;;;;;;;-5.80;100.00;97191.13;5023765;28;20946;-51
2022/04/04 05:05:17;;;;;;;6.10;5.60;;;;;;;-5.67;100.00;97196.47;5027501;28;20468;-59
2022/04/04 05:07:45;;;;;;;6.33;5.73;;;;;;;-5.67;100.00;97191.31;4972474;28;20933;-57
2022/04/04 05:10:14;;;;;;;6.00;5.50;;;;;;;-5.68;100.00;97190.47;5028207;28;20750;-54
2022/04/04 05:12:42;;;;;;;6.07;5.57;;;;;;;-5.69;100.00;97193.13;5027044;28;20530;-57
2022/04/04 05:15:10;;;;;;;5.63;5.20;;;;;;;-5.63;100.00;97203.13;5008804;28;20517;-56
2022/04/04 05:17:39;;;;;;;6.40;5.80;;;;;;;-5.55;100.00;97194.97;5000600;28;20565;-58
2022/04/04 05:20:08;;;;;;;5.30;4.90;;;;;;;-5.45;100.00;97196.13;5025956;28;20522;-57
2022/04/04 05:22:37;;;;;;;5.50;5.10;;;;;;;-5.37;100.00;97199.13;4987935;28;21393;-56
2022/04/04 05:25:06;;;;;;;6.43;5.87;;;;;;;-5.28;100.00;97202.13;5002848;28;20465;-55
2022/04/04 05:27:36;;;;;;;6.00;5.37;;;;;;;-5.31;100.00;97199.69;5006183;28;21158;-56
2022/04/04 05:30:05;;;;;;;6.03;5.53;;;;;;;-5.29;100.00;97203.06;5027668;28;20948;-54
2022/04/04 05:32:33;;;;;;;6.17;5.57;;;;;;;-5.18;100.00;97197.28;5002074;28;20470;-58
2022/04/04 05:35:01;;;;;;;6.00;5.37;;;;;;;-5.13;100.00;97188.34;5027857;28;20539;-54
2022/04/04 05:37:30;;;;;;;5.90;5.50;;;;;;;-4.91;100.00;97194.91;4982476;28;20547;-55
2022/04/04 05:39:59;;;;;;;6.80;5.43;;;;;;;-4.83;100.00;97189.28;4980746;28;20538;-57
2022/04/04 05:42:29;;;;;;;6.23;5.73;;;;;;;-4.67;100.00;97192.66;5024739;28;20548;-59
2022/04/04 05:44:57;;;;;;;6.60;5.90;;;;;;;-4.71;100.00;97196.34;5015146;28;20542;-55
2022/04/04 05:47:26;;;;;;;6.40;5.87;;;;;;;-4.52;100.00;97190.09;5010524;28;21230;-53
2022/04/04 05:49:54;;;;;;;7.17;5.97;;;;;;;-4.43;100.00;97179.22;5028711;28;20616;-57
2022/04/04 05:52:24;;;;;;;6.03;5.53;;;;;;;-4.29;100.00;97180.16;4995345;28;21615;-55
2022/04/04 05:54:57;;;;;;;5.63;5.23;;;;;;;-4.13;100.00;97193.84;5006831;28;20469;-58
2022/04/04 05:57:29;;;;;;;6.30;5.80;;;;;;;-4.08;100.00;97193.59;5025308;28;21443;-59
2022/04/04 05:59:57;;;;;;;5.63;5.13;;;;;;;-3.97;100.00;97187.75;5015675;28;20476;-57
2022/04/04 06:02:26;;;;;;;7.10;5.93;;;;;;;-3.97;100.00;97190.34;5010035;28;20475;-58
2022/04/04 06:04:55;;;;;;;7.93;6.53;;;;;;;-3.89;100.00;97188.13;5027394;28;20454;-58
2022/04/04 06:07:23;;;;;;;7.37;6.67;;;;;;;-3.94;100.00;97185.81;5026962;28;20449;-59
2022/04/04 06:09:51;;;;;;;8.83;6.47;;;;;;;-3.83;100.00;97186.91;5000159;28;20497;-58
2022/04/04 06:12:19;;;;;;;7.00;6.37;;;;;;;-3.65;100.00;97187.53;5002411;28;20599;-56
2022/04/04 06:14:49;;;;;;;7.73;7.07;;;;;;;-3.57;100.00;97180.13;5014936;28;20553;-59
2022/04/04 06:17:18;;;;;;;6.17;5.77;;;;;;;-3.41;100.00;97174.81;5025178;28;20576;-55
2022/04/04 06:19:46;;;;;;;7.03;6.53;;;;;;;-3.18;100.00;97182.06;5014318;28;22143;-59
2022/04/04 06:22:14;;;;;;;7.30;6.70;;;;;;;-3.07;100.00;97189.97;5023586;28;20481;-58
2022/04/04 06:24:43;;;;;;;8.77;6.43;;;;;;;-3.08;100.00;97180.53;4998233;28;20502;-58
2022/04/04 06:27:11;;;;;;;7.27;6.57;;;;;;;-2.96;100.00;97184.09;5000001;28;20466;-54
2022/04/04 06:29:40;;;;;;;7.20;6.67;;;;;;;-2.47;100.00;97187.81;5013856;28;21222;-54
2022/04/04 06:32:10;;;;;;;9.40;6.83;;;;;;;-1.86;100.00;97181.19;5027466;28;20554;-57
2022/04/04 06:34:38;;;;;;;6.97;6.33;;;;;;;-1.47;100.00;97182.75;5010918;28;21249;-58
2022/04/04 06:37:09;;;;;;;7.60;6.90;;;;;;;-1.36;100.00;97184.59;5026958;28;20489;-57
2022/04/04 06:39:38;;;;;;;6.33;5.93;;;;;;;-1.59;100.00;97183.63;5002367;28;21814;-57
2022/04/04 06:42:06;;;;;;;6.93;6.23;;;;;;;-1.66;100.00;97177.22;5025609;28;20481;-56
2022/04/04 06:44:35;;;;;;;7.17;6.57;;;;;;;-1.26;100.00;97174.38;5004917;28;20212;-56
2022/04/04 06:47:04;;;;;;;6.93;6.23;;;;;;;-0.67;100.00;97187.53;5016459;28;20548;-55
2022/04/04 06:49:33;;;;;;;7.67;6.77;;;;;;;-0.83;100.00;97174.81;5010849;28;21114;-56
2022/04/04 06:52:02;;;;;;;6.50;6.00;;;;;;;-0.94;100.00;97183.38;5030156;28;20301;-55
2022/04/04 06:54:30;;;;;;;6.03;5.53;;;;;;;-1.14;100.00;97164.84;5028526;28;20274;-59
2022/04/04 06:56:59;;;;;;;6.50;6.00;;;;;;;-1.38;100.00;97177.84;4996175;28;20230;-58
2022/04/04 06:59:27;;;;;;;7.27;6.70;;;;;;;-1.32;100.00;97175.63;5000565;28;20694;-57
2022/04/04 07:01:56;;;;;;;7.97;6.03;;;;;;;-1.13;100.00;97176.94;5014111;28;20278;-59
2022/04/04 07:04:24;;;;;;;6.57;5.80;;;;;;;-1.32;100.00;97175.63;5012592;28;20271;-55
2022/04/04 07:06:54;;;;;;;6.70;5.80;;;;;;;-1.37;100.00;97171.69;5029201;28;20302;-56
2022/04/04 07:09:23;;;;;;;6.40;5.87;;;;;;;-1.24;100.00;97162.09;5028820;28;20223;-57
2022/04/04 07:11:51;;;;;;;6.47;5.77;;;;;;;-1.13;100.00;97163.94;4998919;28;20565;-57
2022/04/04 07:14:19;;;;;;;6.77;6.17;;;;;;;-1.17;100.00;97165.06;5003565;28;20553;-57
2022/04/04 07:16:51;;;;;;;6.37;5.90;;;;;;;-1.07;100.00;97158.28;5013617;28;20843;-55
2022/04/04 07:19:22;;;;;;;6.10;5.60;;;;;;;-0.93;100.00;97159.88;5016627;28;20266;-58
2022/04/04 07:21:50;;;;;;;6.93;6.40;;;;;;;-0.72;100.00;97161.84;5028827;28;20228;-58
2022/04/04 07:24:20;;;;;;;5.90;5.50;;;;;;;-0.64;100.00;97149.06;5020979;28;20519;-57
2022/04/04 07:26:49;;;;;;;8.10;6.70;;;;;;;-0.44;100.00;97152.78;5000348;28;20218;-59
2022/04/04 07:29:17;;;;;;;6.30;5.70;;;;;;;-0.47;100.00;97154.81;5000093;28;20270;-58
2022/04/04 07:31:45;;;;;;;6.03;5.53;;;;;;;-0.30;100.00;97154.34;5028265;28;20302;-57
2022/04/04 07:34:14;;;;;;;5.93;5.53;;;;;;;-0.16;100.00;97155.09;5014095;28;20299;-55
2022/04/04 07:36:42;;;;;;;6.10;5.70;;;;;;;0.09;100.00;97156.63;5011300;28;20212;-57
2022/04/04 07:39:11;;;;;;;6.20;5.60;;;;;;;0.34;100.00;97159.91;5022891;28;20238;-56
2022/04/04 07:41:40;;;;;;;11.47;10.30;;;;;;;0.48;100.00;97164.06;5027779;28;20242;-57
2022/04/04 07:44:09;;;;;;;9.13;7.67;;;;;;;0.57;100.00;97154.69;4967186;28;20347;-56
2022/04/04 07:46:37;;;;;;;7.80;7.10;;;;;;;0.81;100.00;97151.88;5025429;28;20235;-55
2022/04/04 07:49:05;;;;;;;6.57;6.07;;;;;;;0.88;100.00;97154.84;5015925;28;20203;-53
2022/04/04 07:51:33;;;;;;;5.87;5.30;;;;;;;0.88;100.00;97152.22;5015141;28;20315;-60
2022/04/04 07:54:02;;;;;;;5.13;4.63;;;;;;;1.04;100.00;97150.97;5031160;28;20708;-56
2022/04/04 07:56:30;;;;;;;5.97;5.37;;;;;;;1.35;100.00;97148.47;5025754;28;21171;-56
2022/04/04 07:59:00;;;;;;;4.80;4.47;;;;;;;1.37;100.00;97151.78;4994386;28;20231;-57
2022/04/04 08:01:34;;;;;;;4.60;4.23;;;;;;;1.69;100.00;97143.06;5001324;28;20300;-56
2022/04/04 08:04:09;;;;;;;5.40;5.00;;;;;;;1.77;100.00;97143.22;5003763;28;20208;-57
2022/04/04 08:06:37;;;;;;;4.90;4.50;;;;;;;1.99;100.00;97138.81;5008325;28;21642;-54
2022/04/04 08:09:05;;;;;;;4.70;4.40;;;;;;;2.00;100.00;97137.84;5007701;28;20290;-55
2022/04/04 08:11:33;;;;;;;4.80;4.40;;;;;;;1.94;100.00;97135.78;5025761;28;20323;-56
2022/04/04 08:14:04;;;;;;;4.50;4.10;;;;;;;2.01;100.00;97134.28;4992057;28;20318;-56
2022/04/04 08:16:32;;;;;;;5.70;5.20;;;;;;;2.19;100.00;97131.88;5000048;28;21028;-52
2022/04/04 08:19:01;;;;;;;6.23;5.17;;;;;;;2.34;100.00;97128.88;5015155;28;20693;-55
2022/04/04 08:21:29;;;;;;;4.97;4.57;;;;;;;2.15;100.00;97122.66;5025833;28;20245;-52
2022/04/04 08:23:57;;;;;;;4.20;3.90;;;;;;;2.25;100.00;97122.66;4995079;28;20231;-59
2022/04/04 08:26:26;;;;;;;4.17;3.87;;;;;;;2.39;100.00;97118.84;5019937;28;20200;-51
2022/04/04 08:28:54;;;;;;;4.93;4.53;;;;;;;2.49;100.00;97109.25;5028139;28;20312;-58
2022/04/04 08:31:24;;;;;;;4.73;4.33;;;;;;;2.51;93.98;97115.19;4968597;28;20447;-57
2022/04/04 08:33:52;;;;;;;4.00;3.70;;;;;;;2.31;81.81;97109.88;5023049;28;20310;-57
2022/04/04 08:36:21;;;;;;;4.50;4.10;;;;;;;2.71;91.42;97110.78;5014379;28;20235;-55
2022/04/04 08:38:50;;;;;;;4.13;3.73;;;;;;;3.03;84.12;97099.25;5016112;28;20224;-60
2022/04/04 08:41:19;;;;;;;5.00;4.17;;;;;;;3.13;76.73;97103.63;5010325;28;20824;-58
2022/04/04 08:43:57;;;;;;;4.17;3.87;;;;;;;2.91;73.98;97102.13;5020303;28;20214;-56
2022/04/04 08:46:27;;;;;;;4.53;4.23;;;;;;;3.14;78.37;97084.34;4967582;28;20390;-54
2022/04/04 08:48:58;;;;;;;4.53;4.23;;;;;;;3.14;73.29;97093.00;5026070;28;20208;-57
2022/04/04 08:51:26;;;;;;;8.93;6.10;;;;;;;2.96;77.17;97092.06;4997314;28;20289;-57
2022/04/04 08:53:55;;;;;;;5.97;5.37;;;;;;;2.86;72.83;97076.38;5010501;28;20294;-55
2022/04/04 08:56:24;;;;;;;5.33;3.80;;;;;;;3.32;93.06;97081.84;5008699;28;20521;-54
2022/04/04 08:58:53;;;;;;;4.97;4.57;;;;;;;3.58;68.93;97083.84;5027496;28;20279;-54
2022/04/04 09:01:22;;;;;;;3.57;3.37;;;;;;;3.18;64.01;97070.00;4993556;28;20227;-57
2022/04/04 09:03:54;;;;;;;3.60;3.40;;;;;;;3.59;66.61;97067.16;4978577;28;20212;-56
2022/04/04 09:06:22;;;;;;;4.97;3.30;;;;;;;3.96;64.22;97068.13;5010769;28;20296;-57
2022/04/04 09:08:51;;;;;;;4.13;3.70;;;;;;;3.86;64.63;97061.13;5004610;28;20206;-58
2022/04/04 09:11:19;;;;;;;3.83;3.53;;;;;;;3.78;60.05;97042.66;5015047;28;20318;-54
2022/04/04 09:14:02;;;;;;;4.60;3.83;;;;;;;4.12;55.80;97057.00;5022460;28;20196;-55
2022/04/04 09:16:31;;;;;;;4.20;3.80;;;;;;;4.18;65.29;97059.03;4994443;28;20211;-54
2022/04/04 09:19:00;;;;;;;4.07;3.67;;;;;;;4.50;58.79;97055.13;5003455;28;20231;-53
2022/04/04 09:21:34;;;;;;;5.60;3.20;;;;;;;4.60;55.41;97041.94;5014107;28;20285;-57
2022/04/04 09:24:09;;;;;;;4.23;3.87;;;;;;;4.35;54.88;97053.00;5014319;28;20691;-56
2022/04/04 09:26:40;;;;;;;3.90;3.60;;;;;;;4.57;52.94;97043.06;5011469;28;20211;-57
2022/04/04 09:29:10;;;;;;;3.47;3.27;;;;;;;4.95;52.11;97045.53;5026594;28;20866;-56
2022/04/04 09:31:53;;;;;;;3.60;3.40;;;;;;;5.15;61.17;97040.94;4991399;28;20231;-56
2022/04/04 09:34:22;;;;;;;3.60;3.40;;;;;;;4.58;51.05;97025.53;4996959;28;20215;-54
2022/04/04 09:36:51;;;;;;;4.47;3.47;;;;;;;4.67;54.01;97032.50;5009748;28;20203;-56
2022/04/04 09:39:20;;;;;;;3.63;3.43;;;;;;;5.17;55.11;97025.00;5012260;28;20309;-54
2022/04/04 09:41:48;;;;;;;5.07;4.57;;;;;;;5.44;52.64;97016.13;5008064;28;20346;-56
2022/04/04 09:44:17;;;;;;;4.00;3.70;;;;;;;5.28;56.20;97016.84;5028111;28;20208;-55
2022/04/04 09:46:46;;;;;;;3.90;3.60;;;;;;;4.99;50.62;97007.50;4992667;28;20235;-55
2022/04/04 09:49:16;;;;;;;3.90;3.60;;;;;;;5.26;50.92;97004.88;4991721;28;20927;-52
2022/04/04 09:51:48;;;;;;;3.60;3.40;;;;;;;5.63;51.53;96996.69;5007780;28;20230;-59
2022/04/04 09:54:19;;;;;;;3.77;3.47;;;;;;;4.68;48.29;97007.91;5011031;28;20211;-55
2022/04/04 09:56:50;;;;;;;3.70;3.50;;;;;;;5.09;54.19;96996.88;5019574;28;21129;-56
2022/04/04 09:59:19;;;;;;;6.13;4.10;;;;;;;5.61;52.74;96997.84;5010919;28;20281;-54
2022/04/04 10:01:48;;;;;;;9.20;3.63;;;;;;;5.68;52.90;96990.13;4994237;28;20223;-53
2022/04/04 10:04:17;;;;;;;3.97;3.73;;;;;;;5.64;50.72;96987.81;5017846;28;20731;-58
2022/04/04 10:06:48;;;;;;;3.67;3.37;;;;;;;5.26;49.23;96989.09;4988905;28;20327;-60
2022/04/04 10:09:18;;;;;;;3.53;3.23;;;;;;;5.06;54.65;96973.53;5015395;28;20291;-55
2022/04/04 10:11:46;;;;;;;3.77;3.47;;;;;;;5.36;51.82;96974.91;5025515;28;20228;-58
2022/04/04 10:14:17;;;;;;;3.77;3.50;;;;;;;5.22;50.19;96963.16;5014014;28;20266;-58
2022/04/04 10:16:45;;;;;;;4.07;3.73;;;;;;;5.07;51.43;96972.56;4997407;28;20304;-56
2022/04/04 10:19:14;;;;;;;4.87;4.30;;;;;;;4.90;52.32;96966.38;5024176;28;20315;-57
2022/04/04 10:21:42;;;;;;;4.17;3.93;;;;;;;4.80;53.38;96961.25;5005845;28;20225;-55
2022/04/04 10:24:13;;;;;;;4.47;4.17;;;;;;;5.03;56.90;96960.72;5016576;28;20231;-56
2022/04/04 10:26:42;;;;;;;3.97;3.77;;;;;;;5.20;53.43;96953.78;5014420;28;20223;-54
2022/04/04 10:29:14;;;;;;;4.60;4.20;;;;;;;5.47;53.40;96946.69;5013543;28;20503;-55
2022/04/04 10:31:44;;;;;;;4.20;3.90;;;;;;;5.05;60.12;96946.47;4994927;28;20336;-56
2022/04/04 10:34:14;;;;;;;5.03;4.20;;;;;;;4.22;51.67;96952.06;5028190;28;20203;-52
2022/04/04 10:36:58;;;;;;;4.10;3.90;;;;;;;4.30;53.93;96941.66;4999225;28;20231;-53
2022/04/04 10:39:43;;;;;;;4.03;3.73;;;;;;;4.69;57.15;96935.22;5012727;28;20306;-56
2022/04/04 10:42:31;;;;;;;5.37;4.10;;;;;;;4.95;66.33;96932.63;5027432;28;20303;-54
2022/04/04 10:45:06;;;;;;;6.60;4.70;;;;;;;5.06;61.43;96924.50;5025091;28;20246;-57
2022/04/04 10:47:36;;;;;;;5.03;4.10;;;;;;;5.25;66.82;96912.09;4993797;28;20855;-58
2022/04/04 10:50:22;;;;;;;5.00;4.70;;;;;;;5.21;56.87;96910.75;5027185;28;20284;-58
2022/04/04 10:52:51;;;;;;;4.80;4.40;;;;;;;4.93;58.92;96910.97;4993331;28;20218;-60
2022/04/04 10:55:48;;;;;;;4.33;3.77;;;;;;;4.98;54.49;96905.22;5029792;28;20292;-58
2022/04/04 10:58:27;;;;;;;5.77;5.27;;;;;;;5.03;57.39;96900.34;5024518;28;20207;-56
2022/04/04 11:01:07;;;;;;;4.57;3.70;;;;;;;5.35;62.65;96901.47;5027198;28;21107;-57
2022/04/04 11:03:40;;;;;;;4.20;3.80;;;;;;;5.64;58.02;96882.69;4991897;28;20250;-58
2022/04/04 11:09:08;;;;;;;4.30;4.03;;;;;;;5.18;51.77;96877.78;5014341;28;20212;-57
2022/04/04 11:11:46;;;;;;;4.17;3.87;;;;;;;5.10;53.03;96872.47;5019930;28;20228;-58
2022/04/04 11:14:15;;;;;;;4.87;4.47;;;;;;;4.90;55.17;96874.50;5007256;28;20595;-57
2022/04/04 11:17:43;;;;;;;4.17;3.87;;;;;;;5.15;63.40;96872.00;5026196;28;20240;-55
2022/04/04 11:20:21;;;;;;;4.33;3.67;;;;;;;5.29;60.35;96865.34;4975270;28;20235;-56
2022/04/04 11:22:55;;;;;;;4.37;3.77;;;;;;;4.83;52.37;96858.56;5006742;28;20215;-60
2022/04/04 11:25:26;;;;;;;4.17;3.97;;;;;;;4.80;55.77;96851.00;4999020;28;20207;-53
2022/04/04 11:27:57;;;;;;;4.23;3.93;;;;;;;4.74;53.31;96851.63;5008469;28;20350;-56
2022/04/04 11:30:26;;;;;;;4.27;4.03;;;;;;;4.93;57.54;96835.63;5029431;28;20822;-57
2022/04/04 11:32:57;;;;;;;4.27;3.87;;;;;;;5.24;60.23;96838.72;5014829;28;20947;-56
2022/04/04 11:35:27;;;;;;;3.87;3.67;;;;;;;4.79;51.91;96833.59;4994336;28;20203;-56
2022/04/04 11:37:57;;;;;;;5.80;4.13;;;;;;;4.87;55.38;96825.75;5003627;28;21029;-57
2022/04/04 11:40:29;;;;;;;4.13;3.93;;;;;;;5.03;53.87;96824.19;5013518;28;21271;-54
2022/04/04 11:42:59;;;;;;;3.97;3.67;;;;;;;4.76;54.32;96813.72;5012577;28;20212;-58
2022/04/04 11:45:32;;;;;;;5.17;4.77;;;;;;;5.26;59.98;96813.13;5028473;28;20987;-54
2022/04/04 11:48:02;;;;;;;21.37;6.13;;;;;;;5.46;54.94;96806.59;5024401;28;20747;-58
2022/04/04 11:50:34;;;;;;;21.97;4.87;;;;;;;5.68;57.16;96808.75;4975098;28;20216;-55